Nadeshiko_maru — JD2502 — position and weather

sailwx.info

Track history (hours):
 
Tides and Currents Weather Stations Pressure Air Temp Water Temp Dewpoint Dewpoint Depression Visibility Wind Speed Wind Dir Waves Ship Positions

Nadeshiko_maru

Last reported at 2018-Apr-24 02:31 UTC. Time now 2018-Apr-24 02:32 UTC.
Position N 33°58' E 131°04'.

Length 69 m; draft 4.5 m.

Type: Tanker. MMSI: 431000393.

Date/timePositionNaut miles runAvg speedWind from/ knotsBaromVisibWave heightAir tempDewpointWater temp
2018-Apr-24 02:31N 33°58' E 131°04'0 0.0
2018-Apr-24 02:01N 33°58' E 131°04'0 0.0
2018-Apr-24 01:30N 33°58' E 131°04'1 1.1
2018-Apr-24 01:01N 33°58' E 131°04'5 9.9
2018-Apr-24 00:31N 33°58' E 130°58'5 9.2
2018-Apr-24 00:00N 33°54' E 130°54'4 8.5
2018-Apr-23 23:30N 33°58' E 130°53'5 9.8
2018-Apr-23 23:01N 34°03' E 130°51'5 9.7
2018-Apr-23 22:30N 34°08' E 130°50'510.1
2018-Apr-23 22:00N 34°13' E 130°49'5 9.5
2018-Apr-23 21:28N 34°18' E 130°49'4 8.8
2018-Apr-23 21:00N 34°22' E 130°49'6 9.6
2018-Apr-23 20:24N 34°26' E 130°54'2 0.1
2018-Apr-22 11:53N 34°25' E 130°51'5 9.1
2018-Apr-22 11:20N 34°21' E 130°48'3 9.9
2018-Apr-22 10:59N 34°17' E 130°49'5 9.7
2018-Apr-22 10:30N 34°13' E 130°49'5 9.6
2018-Apr-22 10:01N 34°08' E 130°50'510.0
2018-Apr-22 09:30N 34°03' E 130°51'5 9.8
2018-Apr-22 09:00N 33°58' E 130°53'4 7.9
2018-Apr-22 08:30N 33°55' E 130°54'3 6.9
2018-Apr-22 08:00N 33°57' E 130°57'4 8.1
2018-Apr-22 07:30N 33°58' E 131°02'510.3
2018-Apr-22 07:00N 33°56' E 131°07'4 7.8
2018-Apr-22 06:31N 33°55' E 131°12'1 1.4
2018-Apr-22 06:00N 33°56' E 131°11'0 0.0
2018-Apr-22 05:30N 33°56' E 131°11'0 0.0
2018-Apr-22 05:00N 33°56' E 131°11'0 0.0
2018-Apr-22 04:30N 33°56' E 131°11'0 0.0
2018-Apr-22 04:00N 33°56' E 131°11'0 0.0
2018-Apr-22 03:30N 33°56' E 131°11'3 5.2
2018-Apr-22 03:00N 33°53' E 131°11'0 0.2
2018-Apr-22 02:30N 33°53' E 131°11'0 0.0
2018-Apr-22 02:00N 33°53' E 131°11'0 0.0
2018-Apr-22 01:30N 33°53' E 131°11'0 0.0
2018-Apr-22 01:00N 33°53' E 131°11'0 0.0
2018-Apr-22 00:31N 33°53' E 131°11'0 0.1
2018-Apr-22 00:01N 33°53' E 131°11'4 8.7
2018-Apr-21 23:30N 33°55' E 131°06'511.0
2018-Apr-21 23:00N 33°58' E 131°01'511.2
2018-Apr-21 22:30N 33°55' E 130°56'5 9.7
2018-Apr-21 22:01N 33°57' E 130°51'611.0
2018-Apr-21 21:30N 33°58' E 130°44'611.3
2018-Apr-21 21:01N 33°57' E 130°37'611.2
2018-Apr-21 20:31N 33°57' E 130°31'611.8
2018-Apr-21 20:01N 33°55' E 130°24'611.8
2018-Apr-21 19:30N 33°53' E 130°18'611.8
2018-Apr-21 19:00N 33°49' E 130°11'611.6
2018-Apr-21 18:29N 33°46' E 130°05'511.4
2018-Apr-21 18:00N 33°44' E 129°60'20 0.7
2018-Apr-20 11:17N 33°35' E 129°38'311.6
2018-Apr-20 10:59N 33°36' E 129°42'611.9
2018-Apr-20 10:30N 33°38' E 129°48'811.7
2018-Apr-20 09:47N 33°42' E 129°57'311.1
2018-Apr-20 09:29N 33°44' E 130°00'610.8
2018-Apr-20 08:56N 33°47' E 130°06'510.7
2018-Apr-20 08:30N 33°49' E 130°11'610.4
2018-Apr-20 07:58N 33°52' E 130°17'510.2
2018-Apr-20 07:30N 33°54' E 130°22'5 9.5
2018-Apr-20 07:00N 33°56' E 130°27'5 9.8
2018-Apr-20 06:30N 33°57' E 130°33'510.0
2018-Apr-20 06:00N 33°58' E 130°39'5 9.8
2018-Apr-20 05:30N 33°58' E 130°45'510.4
2018-Apr-20 05:00N 33°58' E 130°51'5 9.4
2018-Apr-20 04:30N 33°55' E 130°56'611.3
2018-Apr-20 04:00N 33°59' E 131°00'510.7
2018-Apr-20 03:30N 33°56' E 131°06'5 9.8
2018-Apr-20 03:01N 33°55' E 131°12'1 2.6
2018-Apr-20 02:30N 33°56' E 131°11'0 0.0
2018-Apr-20 02:00N 33°56' E 131°11'0 0.0
2018-Apr-20 01:30N 33°56' E 131°11'0 0.0
2018-Apr-20 01:00N 33°56' E 131°11'0 0.0
2018-Apr-20 00:30N 33°56' E 131°11'0 0.0
2018-Apr-20 00:00N 33°56' E 131°11'0 0.0
2018-Apr-19 23:30N 33°56' E 131°11'0 0.0
2018-Apr-19 23:00N 33°56' E 131°11'0 0.0
2018-Apr-19 22:30N 33°56' E 131°11'2 3.5
2018-Apr-19 22:00N 33°54' E 131°11'1 1.8
2018-Apr-19 21:30N 33°54' E 131°10'5 9.1
2018-Apr-19 21:00N 33°55' E 131°05'511.0
2018-Apr-19 20:30N 33°58' E 130°60'612.0
2018-Apr-19 20:00N 33°54' E 130°54'611.1
2018-Apr-19 19:30N 33°58' E 130°49'611.5
2018-Apr-19 19:00N 33°58' E 130°42'611.4
2018-Apr-19 18:29N 33°57' E 130°35'612.0
2018-Apr-19 18:00N 33°56' E 130°28'611.9
2018-Apr-19 17:30N 33°54' E 130°21'611.8
2018-Apr-19 17:00N 33°51' E 130°15'611.9
2018-Apr-19 16:30N 33°48' E 130°09'611.7
2018-Apr-19 16:00N 33°45' E 130°03'611.8
2018-Apr-19 15:28N 33°42' E 129°56'711.4
2018-Apr-19 14:52N 33°39' E 129°49'511.3
2018-Apr-19 14:25N 33°36' E 129°44'510.9
2018-Apr-19 14:00N 33°35' E 129°39'1710.8
2018-Apr-19 12:27N 33°25' E 129°23'511.4
2018-Apr-19 12:00N 33°20' E 129°20'611.0
2018-Apr-19 11:26N 33°14' E 129°18'510.8
2018-Apr-19 10:59N 33°09' E 129°20'48 1.8
2018-Apr-18 07:44N 33°43' E 129°60'210.1
2018-Apr-18 07:30N 33°45' E 130°02'610.0
2018-Apr-18 06:52N 33°48' E 130°08'4 9.9
2018-Apr-18 06:29N 33°50' E 130°12'5 9.8
2018-Apr-18 05:59N 33°52' E 130°17'5 9.7
2018-Apr-18 05:30N 33°55' E 130°22'5 9.3
2018-Apr-18 04:58N 33°56' E 130°28'4 9.6
2018-Apr-18 04:30N 33°57' E 130°33'5 9.8
2018-Apr-18 04:00N 33°58' E 130°39'5 9.9
2018-Apr-18 03:30N 33°58' E 130°45'510.5
2018-Apr-18 03:00N 33°57' E 130°51'4 8.3
2018-Apr-18 02:30N 33°56' E 130°56'510.8
2018-Apr-18 02:00N 33°58' E 131°02'511.0
2018-Apr-18 01:30N 33°56' E 131°07'4 7.4
2018-Apr-18 01:01N 33°56' E 131°12'1 1.1
2018-Apr-18 00:31N 33°56' E 131°11'0 0.0
2018-Apr-18 00:01N 33°56' E 131°11'0 0.0
2018-Apr-17 23:31N 33°56' E 131°11'0 0.0
2018-Apr-17 23:01N 33°56' E 131°11'0 0.0
2018-Apr-17 22:31N 33°56' E 131°11'2 3.6
2018-Apr-17 22:01N 33°54' E 131°11'4 8.7
2018-Apr-17 21:30N 33°56' E 131°06'510.8
2018-Apr-17 21:00N 33°58' E 131°01'5 9.2
2018-Apr-17 20:30N 33°57' E 130°56'0 0.0
2018-Apr-17 19:59N 33°57' E 130°56'0 0.0
2018-Apr-17 19:30N 33°57' E 130°56'0 0.0
2018-Apr-17 19:00N 33°57' E 130°56'0 0.0
2018-Apr-17 18:30N 33°57' E 130°56'0 0.0
2018-Apr-17 18:00N 33°57' E 130°56'0 0.0
2018-Apr-17 17:30N 33°57' E 130°56'0 0.0
2018-Apr-17 17:00N 33°57' E 130°56'0 0.0
2018-Apr-17 16:30N 33°57' E 130°56'0 0.0
2018-Apr-17 16:00N 33°57' E 130°56'0 0.0
2018-Apr-17 15:30N 33°57' E 130°56'0 0.0
2018-Apr-17 15:00N 33°57' E 130°56'0 0.0
2018-Apr-17 14:30N 33°57' E 130°56'0 0.0
2018-Apr-17 14:00N 33°57' E 130°56'0 0.0
2018-Apr-17 13:30N 33°57' E 130°56'0 0.0
2018-Apr-17 13:00N 33°57' E 130°56'0 0.0
2018-Apr-17 12:30N 33°57' E 130°56'0 0.0
2018-Apr-17 11:59N 33°57' E 130°56'0 0.0
2018-Apr-17 11:30N 33°57' E 130°56'0 0.0
2018-Apr-17 10:58N 33°57' E 130°56'0 0.0
2018-Apr-17 10:30N 33°57' E 130°56'0 0.0
2018-Apr-17 10:00N 33°57' E 130°56'0 0.0
2018-Apr-17 09:30N 33°57' E 130°56'0 0.0
2018-Apr-17 09:00N 33°57' E 130°56'0 0.9
2018-Apr-17 08:30N 33°57' E 130°56'3 5.8
2018-Apr-17 08:00N 33°58' E 130°59'3 5.1
2018-Apr-17 07:30N 33°58' E 131°02'510.7
2018-Apr-17 07:01N 33°55' E 130°56'3 6.6
2018-Apr-17 06:30N 33°55' E 130°52'0 0.0
2018-Apr-17 05:59N 33°55' E 130°52'0 0.0
2018-Apr-17 05:30N 33°55' E 130°52'0 0.0
2018-Apr-17 05:00N 33°55' E 130°52'0 0.0
2018-Apr-17 04:30N 33°55' E 130°52'0 0.0
2018-Apr-17 04:00N 33°55' E 130°52'0 1.0
2018-Apr-17 03:30N 33°55' E 130°53'3 6.7
2018-Apr-17 03:00N 33°57' E 130°56'5 9.9
2018-Apr-17 02:30N 33°58' E 131°02'4 7.5
2018-Apr-17 02:00N 33°56' E 131°06'2 3.4
2018-Apr-17 01:30N 33°55' E 131°07'3 5.2
2018-Apr-17 01:00N 33°54' E 131°10'2 3.5
2018-Apr-17 00:30N 33°56' E 131°11'0 0.1
2018-Apr-17 00:00N 33°56' E 131°11'0 0.0
2018-Apr-16 23:30N 33°56' E 131°11'0 0.0
2018-Apr-16 23:00N 33°56' E 131°11'0 0.0
2018-Apr-16 22:30N 33°56' E 131°11'2 3.5
2018-Apr-16 22:00N 33°54' E 131°11'0 0.2
2018-Apr-16 21:30N 33°54' E 131°11'0 0.0
2018-Apr-16 21:00N 33°54' E 131°11'0 0.0
2018-Apr-16 20:29N 33°54' E 131°11'0 0.0
2018-Apr-16 20:00N 33°54' E 131°11'0 0.0
2018-Apr-16 19:30N 33°54' E 131°11'0 0.0
2018-Apr-16 18:59N 33°54' E 131°11'0 0.1
2018-Apr-16 18:30N 33°54' E 131°11'0 0.0
2018-Apr-16 18:00N 33°54' E 131°11'0 0.0
2018-Apr-16 17:30N 33°54' E 131°11'0 0.0
2018-Apr-16 17:00N 33°54' E 131°11'0 0.0
2018-Apr-16 16:30N 33°54' E 131°11'0 0.0
2018-Apr-16 16:00N 33°54' E 131°11'0 0.0
2018-Apr-16 15:30N 33°54' E 131°11'0 0.0
2018-Apr-16 15:00N 33°54' E 131°11'0 0.0
2018-Apr-16 14:30N 33°54' E 131°11'0 0.0
2018-Apr-16 14:00N 33°54' E 131°11'0 0.0
2018-Apr-16 13:30N 33°54' E 131°11'0 0.0
2018-Apr-16 13:00N 33°54' E 131°11'0 0.1
2018-Apr-16 12:30N 33°54' E 131°11'0 0.0
2018-Apr-16 12:00N 33°54' E 131°11'0 0.0
2018-Apr-16 11:30N 33°54' E 131°11'0 0.0
2018-Apr-16 11:00N 33°54' E 131°11'0 0.0
2018-Apr-16 10:30N 33°54' E 131°11'0 0.1
2018-Apr-16 10:01N 33°54' E 131°11'1 2.8
2018-Apr-16 09:30N 33°53' E 131°12'611.9
2018-Apr-16 09:00N 33°51' E 131°19'611.7
2018-Apr-16 08:30N 33°50' E 131°26'611.7
2018-Apr-16 08:00N 33°48' E 131°33'611.6
2018-Apr-16 07:30N 33°47' E 131°40'511.0
2018-Apr-16 07:00N 33°46' E 131°46'3011.3
2018-Apr-16 04:23N 33°39' E 132°21'411.5
2018-Apr-16 04:00N 33°39' E 132°26'4 6.9
2018-Apr-16 03:28N 33°38' E 132°30'0 0.0
2018-Apr-16 02:59N 33°38' E 132°30'0 0.0
2018-Apr-16 02:30N 33°38' E 132°30'0 0.0
2018-Apr-16 01:53N 33°38' E 132°30'0 0.0
2018-Apr-16 01:30N 33°38' E 132°30'0 0.0
2018-Apr-16 01:00N 33°38' E 132°30'0 0.0
2018-Apr-16 00:29N 33°38' E 132°30'0 0.0
2018-Apr-16 00:00N 33°38' E 132°30'0 0.8
2018-Apr-15 23:30N 33°38' E 132°30'1 1.5
2018-Apr-15 23:00N 33°39' E 132°30'4 7.1
2018-Apr-15 22:30N 33°39' E 132°26'4 8.5
2018-Apr-15 21:59N 33°40' E 132°20'11 8.5
2018-Apr-15 20:44N 33°41' E 132°08'8 9.9
2018-Apr-15 19:54N 33°43' E 131°58'4 9.9
2018-Apr-15 19:30N 33°44' E 131°53'5 9.9
2018-Apr-15 19:00N 33°45' E 131°48'510.2
2018-Apr-15 18:30N 33°46' E 131°42'510.6
2018-Apr-15 18:00N 33°47' E 131°35'510.7
2018-Apr-15 17:30N 33°48' E 131°29'610.8
2018-Apr-15 17:00N 33°49' E 131°23'511.0
2018-Apr-15 16:30N 33°51' E 131°16'510.5
2018-Apr-15 16:00N 33°54' E 131°11'0 0.4
2018-Apr-15 15:30N 33°54' E 131°11'0 0.0
2018-Apr-15 15:00N 33°54' E 131°11'0 0.1
2018-Apr-15 14:30N 33°54' E 131°11'0 0.0
2018-Apr-15 14:00N 33°54' E 131°11'0 0.1
2018-Apr-15 13:30N 33°54' E 131°11'0 0.1
2018-Apr-15 13:00N 33°54' E 131°11'0 0.0
2018-Apr-15 12:30N 33°54' E 131°11'0 0.1
2018-Apr-15 12:00N 33°54' E 131°11'0 0.1
2018-Apr-15 11:30N 33°54' E 131°11'0 0.0
2018-Apr-15 11:00N 33°54' E 131°11'0 0.1
2018-Apr-15 10:30N 33°54' E 131°11'2 4.9
2018-Apr-15 10:00N 33°56' E 131°11'0 0.0
2018-Apr-15 09:30N 33°56' E 131°11'0 0.0
2018-Apr-15 09:00N 33°56' E 131°11'0 0.0
2018-Apr-15 08:30N 33°56' E 131°11'0 0.0
2018-Apr-15 08:00N 33°56' E 131°11'0 0.0
2018-Apr-15 07:30N 33°56' E 131°11'0 0.0
2018-Apr-15 07:00N 33°56' E 131°11'0 0.0
2018-Apr-15 06:30N 33°56' E 131°11'0 0.0
2018-Apr-15 06:00N 33°56' E 131°11'0 0.4
2018-Apr-15 05:30N 33°56' E 131°11'3 5.4
2018-Apr-15 05:00N 33°53' E 131°11'0 0.1
2018-Apr-15 04:30N 33°53' E 131°11'0 0.0
2018-Apr-15 04:00N 33°53' E 131°11'0 0.0
2018-Apr-15 03:30N 33°53' E 131°11'0 0.0
2018-Apr-15 03:00N 33°53' E 131°11'0 0.0
2018-Apr-15 02:30N 33°53' E 131°11'0 0.0
2018-Apr-15 02:00N 33°53' E 131°11'0 0.0
2018-Apr-15 01:30N 33°53' E 131°11'1 2.8
2018-Apr-15 01:00N 33°53' E 131°10'611.1
2018-Apr-15 00:30N 33°56' E 131°04'5 9.3
2018-Apr-15 00:00N 33°58' E 130°59'4 7.6
2018-Apr-14 23:30N 33°55' E 130°56'3 5.1
2018-Apr-14 23:00N 33°55' E 130°53'5 9.6
2018-Apr-14 22:30N 33°58' E 130°48'510.5
2018-Apr-14 22:00N 33°57' E 130°42'510.5
2018-Apr-14 21:30N 33°57' E 130°35'510.3
2018-Apr-14 21:00N 33°56' E 130°29'5 9.7
2018-Apr-14 20:30N 33°55' E 130°24'5 9.5
2018-Apr-14 20:00N 33°53' E 130°19'5 9.8
2018-Apr-14 19:30N 33°50' E 130°14'510.0
2018-Apr-14 19:00N 33°48' E 130°08'510.1
2018-Apr-14 18:30N 33°45' E 130°03'510.2
2018-Apr-14 18:00N 33°43' E 129°58'  
Track history (hours):
 
Tides and Currents Weather Stations Pressure Air Temp Water Temp Dewpoint Dewpoint Depression Visibility Wind Speed Wind Dir Waves Ship Positions

Nadeshiko_maru

Last reported at 2018-Apr-24 02:31 UTC. Time now 2018-Apr-24 02:32 UTC.
Position N 33°58' E 131°04'.

Length 69 m; draft 4.5 m.

Type: Tanker. MMSI: 431000393.

Date/timePositionNaut miles runAvg speedWind from/ knotsBaromVisibWave heightAir tempDewpointWater temp
2018-Apr-24 02:31N 33°58' E 131°04'0 0.0
2018-Apr-24 02:01N 33°58' E 131°04'0 0.0
2018-Apr-24 01:30N 33°58' E 131°04'1 1.1
2018-Apr-24 01:01N 33°58' E 131°04'5 9.9
2018-Apr-24 00:31N 33°58' E 130°58'5 9.2
2018-Apr-24 00:00N 33°54' E 130°54'4 8.5
2018-Apr-23 23:30N 33°58' E 130°53'5 9.8
2018-Apr-23 23:01N 34°03' E 130°51'5 9.7
2018-Apr-23 22:30N 34°08' E 130°50'510.1
2018-Apr-23 22:00N 34°13' E 130°49'5 9.5
2018-Apr-23 21:28N 34°18' E 130°49'4 8.8
2018-Apr-23 21:00N 34°22' E 130°49'6 9.6
2018-Apr-23 20:24N 34°26' E 130°54'2 0.1
2018-Apr-22 11:53N 34°25' E 130°51'5 9.1
2018-Apr-22 11:20N 34°21' E 130°48'3 9.9
2018-Apr-22 10:59N 34°17' E 130°49'5 9.7
2018-Apr-22 10:30N 34°13' E 130°49'5 9.6
2018-Apr-22 10:01N 34°08' E 130°50'510.0
2018-Apr-22 09:30N 34°03' E 130°51'5 9.8
2018-Apr-22 09:00N 33°58' E 130°53'4 7.9
2018-Apr-22 08:30N 33°55' E 130°54'3 6.9
2018-Apr-22 08:00N 33°57' E 130°57'4 8.1
2018-Apr-22 07:30N 33°58' E 131°02'510.3
2018-Apr-22 07:00N 33°56' E 131°07'4 7.8
2018-Apr-22 06:31N 33°55' E 131°12'1 1.4
2018-Apr-22 06:00N 33°56' E 131°11'0 0.0
2018-Apr-22 05:30N 33°56' E 131°11'0 0.0
2018-Apr-22 05:00N 33°56' E 131°11'0 0.0
2018-Apr-22 04:30N 33°56' E 131°11'0 0.0
2018-Apr-22 04:00N 33°56' E 131°11'0 0.0
2018-Apr-22 03:30N 33°56' E 131°11'3 5.2
2018-Apr-22 03:00N 33°53' E 131°11'0 0.2
2018-Apr-22 02:30N 33°53' E 131°11'0 0.0
2018-Apr-22 02:00N 33°53' E 131°11'0 0.0
2018-Apr-22 01:30N 33°53' E 131°11'0 0.0
2018-Apr-22 01:00N 33°53' E 131°11'0 0.0
2018-Apr-22 00:31N 33°53' E 131°11'0 0.1
2018-Apr-22 00:01N 33°53' E 131°11'4 8.7
2018-Apr-21 23:30N 33°55' E 131°06'511.0
2018-Apr-21 23:00N 33°58' E 131°01'511.2
2018-Apr-21 22:30N 33°55' E 130°56'5 9.7
2018-Apr-21 22:01N 33°57' E 130°51'611.0
2018-Apr-21 21:30N 33°58' E 130°44'611.3
2018-Apr-21 21:01N 33°57' E 130°37'611.2
2018-Apr-21 20:31N 33°57' E 130°31'611.8
2018-Apr-21 20:01N 33°55' E 130°24'611.8
2018-Apr-21 19:30N 33°53' E 130°18'611.8
2018-Apr-21 19:00N 33°49' E 130°11'611.6
2018-Apr-21 18:29N 33°46' E 130°05'511.4
2018-Apr-21 18:00N 33°44' E 129°60'20 0.7
2018-Apr-20 11:17N 33°35' E 129°38'311.6
2018-Apr-20 10:59N 33°36' E 129°42'611.9
2018-Apr-20 10:30N 33°38' E 129°48'811.7
2018-Apr-20 09:47N 33°42' E 129°57'311.1
2018-Apr-20 09:29N 33°44' E 130°00'610.8
2018-Apr-20 08:56N 33°47' E 130°06'510.7
2018-Apr-20 08:30N 33°49' E 130°11'610.4
2018-Apr-20 07:58N 33°52' E 130°17'510.2
2018-Apr-20 07:30N 33°54' E 130°22'5 9.5
2018-Apr-20 07:00N 33°56' E 130°27'5 9.8
2018-Apr-20 06:30N 33°57' E 130°33'510.0
2018-Apr-20 06:00N 33°58' E 130°39'5 9.8
2018-Apr-20 05:30N 33°58' E 130°45'510.4
2018-Apr-20 05:00N 33°58' E 130°51'5 9.4
2018-Apr-20 04:30N 33°55' E 130°56'611.3
2018-Apr-20 04:00N 33°59' E 131°00'510.7
2018-Apr-20 03:30N 33°56' E 131°06'5 9.8
2018-Apr-20 03:01N 33°55' E 131°12'1 2.6
2018-Apr-20 02:30N 33°56' E 131°11'0 0.0
2018-Apr-20 02:00N 33°56' E 131°11'0 0.0
2018-Apr-20 01:30N 33°56' E 131°11'0 0.0
2018-Apr-20 01:00N 33°56' E 131°11'0 0.0
2018-Apr-20 00:30N 33°56' E 131°11'0 0.0
2018-Apr-20 00:00N 33°56' E 131°11'0 0.0
2018-Apr-19 23:30N 33°56' E 131°11'0 0.0
2018-Apr-19 23:00N 33°56' E 131°11'0 0.0
2018-Apr-19 22:30N 33°56' E 131°11'2 3.5
2018-Apr-19 22:00N 33°54' E 131°11'1 1.8
2018-Apr-19 21:30N 33°54' E 131°10'5 9.1
2018-Apr-19 21:00N 33°55' E 131°05'511.0
2018-Apr-19 20:30N 33°58' E 130°60'612.0
2018-Apr-19 20:00N 33°54' E 130°54'611.1
2018-Apr-19 19:30N 33°58' E 130°49'611.5
2018-Apr-19 19:00N 33°58' E 130°42'611.4
2018-Apr-19 18:29N 33°57' E 130°35'612.0
2018-Apr-19 18:00N 33°56' E 130°28'611.9
2018-Apr-19 17:30N 33°54' E 130°21'611.8
2018-Apr-19 17:00N 33°51' E 130°15'611.9
2018-Apr-19 16:30N 33°48' E 130°09'611.7
2018-Apr-19 16:00N 33°45' E 130°03'611.8
2018-Apr-19 15:28N 33°42' E 129°56'711.4
2018-Apr-19 14:52N 33°39' E 129°49'511.3
2018-Apr-19 14:25N 33°36' E 129°44'510.9
2018-Apr-19 14:00N 33°35' E 129°39'1710.8
2018-Apr-19 12:27N 33°25' E 129°23'511.4
2018-Apr-19 12:00N 33°20' E 129°20'611.0
2018-Apr-19 11:26N 33°14' E 129°18'510.8
2018-Apr-19 10:59N 33°09' E 129°20'48 1.8
2018-Apr-18 07:44N 33°43' E 129°60'210.1
2018-Apr-18 07:30N 33°45' E 130°02'610.0
2018-Apr-18 06:52N 33°48' E 130°08'4 9.9
2018-Apr-18 06:29N 33°50' E 130°12'5 9.8
2018-Apr-18 05:59N 33°52' E 130°17'5 9.7
2018-Apr-18 05:30N 33°55' E 130°22'5 9.3
2018-Apr-18 04:58N 33°56' E 130°28'4 9.6
2018-Apr-18 04:30N 33°57' E 130°33'5 9.8
2018-Apr-18 04:00N 33°58' E 130°39'5 9.9
2018-Apr-18 03:30N 33°58' E 130°45'510.5
2018-Apr-18 03:00N 33°57' E 130°51'4 8.3
2018-Apr-18 02:30N 33°56' E 130°56'510.8
2018-Apr-18 02:00N 33°58' E 131°02'511.0
2018-Apr-18 01:30N 33°56' E 131°07'4 7.4
2018-Apr-18 01:01N 33°56' E 131°12'1 1.1
2018-Apr-18 00:31N 33°56' E 131°11'0 0.0
2018-Apr-18 00:01N 33°56' E 131°11'0 0.0
2018-Apr-17 23:31N 33°56' E 131°11'0 0.0
2018-Apr-17 23:01N 33°56' E 131°11'0 0.0
2018-Apr-17 22:31N 33°56' E 131°11'2 3.6
2018-Apr-17 22:01N 33°54' E 131°11'4 8.7
2018-Apr-17 21:30N 33°56' E 131°06'510.8
2018-Apr-17 21:00N 33°58' E 131°01'5 9.2
2018-Apr-17 20:30N 33°57' E 130°56'0 0.0
2018-Apr-17 19:59N 33°57' E 130°56'0 0.0
2018-Apr-17 19:30N 33°57' E 130°56'0 0.0
2018-Apr-17 19:00N 33°57' E 130°56'0 0.0
2018-Apr-17 18:30N 33°57' E 130°56'0 0.0
2018-Apr-17 18:00N 33°57' E 130°56'0 0.0
2018-Apr-17 17:30N 33°57' E 130°56'0 0.0
2018-Apr-17 17:00N 33°57' E 130°56'0 0.0
2018-Apr-17 16:30N 33°57' E 130°56'0 0.0
2018-Apr-17 16:00N 33°57' E 130°56'0 0.0
2018-Apr-17 15:30N 33°57' E 130°56'0 0.0
2018-Apr-17 15:00N 33°57' E 130°56'0 0.0
2018-Apr-17 14:30N 33°57' E 130°56'0 0.0
2018-Apr-17 14:00N 33°57' E 130°56'0 0.0
2018-Apr-17 13:30N 33°57' E 130°56'0 0.0
2018-Apr-17 13:00N 33°57' E 130°56'0 0.0
2018-Apr-17 12:30N 33°57' E 130°56'0 0.0
2018-Apr-17 11:59N 33°57' E 130°56'0 0.0
2018-Apr-17 11:30N 33°57' E 130°56'0 0.0
2018-Apr-17 10:58N 33°57' E 130°56'0 0.0
2018-Apr-17 10:30N 33°57' E 130°56'0 0.0
2018-Apr-17 10:00N 33°57' E 130°56'0 0.0
2018-Apr-17 09:30N 33°57' E 130°56'0 0.0
2018-Apr-17 09:00N 33°57' E 130°56'0 0.9
2018-Apr-17 08:30N 33°57' E 130°56'3 5.8
2018-Apr-17 08:00N 33°58' E 130°59'3 5.1
2018-Apr-17 07:30N 33°58' E 131°02'510.7
2018-Apr-17 07:01N 33°55' E 130°56'3 6.6
2018-Apr-17 06:30N 33°55' E 130°52'0 0.0
2018-Apr-17 05:59N 33°55' E 130°52'0 0.0
2018-Apr-17 05:30N 33°55' E 130°52'0 0.0
2018-Apr-17 05:00N 33°55' E 130°52'0 0.0
2018-Apr-17 04:30N 33°55' E 130°52'0 0.0
2018-Apr-17 04:00N 33°55' E 130°52'0 1.0
2018-Apr-17 03:30N 33°55' E 130°53'3 6.7
2018-Apr-17 03:00N 33°57' E 130°56'5 9.9
2018-Apr-17 02:30N 33°58' E 131°02'4 7.5
2018-Apr-17 02:00N 33°56' E 131°06'2 3.4
2018-Apr-17 01:30N 33°55' E 131°07'3 5.2
2018-Apr-17 01:00N 33°54' E 131°10'2 3.5
2018-Apr-17 00:30N 33°56' E 131°11'0 0.1
2018-Apr-17 00:00N 33°56' E 131°11'0 0.0
2018-Apr-16 23:30N 33°56' E 131°11'0 0.0
2018-Apr-16 23:00N 33°56' E 131°11'0 0.0
2018-Apr-16 22:30N 33°56' E 131°11'2 3.5
2018-Apr-16 22:00N 33°54' E 131°11'0 0.2
2018-Apr-16 21:30N 33°54' E 131°11'0 0.0
2018-Apr-16 21:00N 33°54' E 131°11'0 0.0
2018-Apr-16 20:29N 33°54' E 131°11'0 0.0
2018-Apr-16 20:00N 33°54' E 131°11'0 0.0
2018-Apr-16 19:30N 33°54' E 131°11'0 0.0
2018-Apr-16 18:59N 33°54' E 131°11'0 0.1
2018-Apr-16 18:30N 33°54' E 131°11'0 0.0
2018-Apr-16 18:00N 33°54' E 131°11'0 0.0
2018-Apr-16 17:30N 33°54' E 131°11'0 0.0
2018-Apr-16 17:00N 33°54' E 131°11'0 0.0
2018-Apr-16 16:30N 33°54' E 131°11'0 0.0
2018-Apr-16 16:00N 33°54' E 131°11'0 0.0
2018-Apr-16 15:30N 33°54' E 131°11'0 0.0
2018-Apr-16 15:00N 33°54' E 131°11'0 0.0
2018-Apr-16 14:30N 33°54' E 131°11'0 0.0
2018-Apr-16 14:00N 33°54' E 131°11'0 0.0
2018-Apr-16 13:30N 33°54' E 131°11'0 0.0
2018-Apr-16 13:00N 33°54' E 131°11'0 0.1
2018-Apr-16 12:30N 33°54' E 131°11'0 0.0
2018-Apr-16 12:00N 33°54' E 131°11'0 0.0
2018-Apr-16 11:30N 33°54' E 131°11'0 0.0
2018-Apr-16 11:00N 33°54' E 131°11'0 0.0
2018-Apr-16 10:30N 33°54' E 131°11'0 0.1
2018-Apr-16 10:01N 33°54' E 131°11'1 2.8
2018-Apr-16 09:30N 33°53' E 131°12'611.9
2018-Apr-16 09:00N 33°51' E 131°19'611.7
2018-Apr-16 08:30N 33°50' E 131°26'611.7
2018-Apr-16 08:00N 33°48' E 131°33'611.6
2018-Apr-16 07:30N 33°47' E 131°40'511.0
2018-Apr-16 07:00N 33°46' E 131°46'3011.3
2018-Apr-16 04:23N 33°39' E 132°21'411.5
2018-Apr-16 04:00N 33°39' E 132°26'4 6.9
2018-Apr-16 03:28N 33°38' E 132°30'0 0.0
2018-Apr-16 02:59N 33°38' E 132°30'0 0.0
2018-Apr-16 02:30N 33°38' E 132°30'0 0.0
2018-Apr-16 01:53N 33°38' E 132°30'0 0.0
2018-Apr-16 01:30N 33°38' E 132°30'0 0.0
2018-Apr-16 01:00N 33°38' E 132°30'0 0.0
2018-Apr-16 00:29N 33°38' E 132°30'0 0.0
2018-Apr-16 00:00N 33°38' E 132°30'0 0.8
2018-Apr-15 23:30N 33°38' E 132°30'1 1.5
2018-Apr-15 23:00N 33°39' E 132°30'4 7.1
2018-Apr-15 22:30N 33°39' E 132°26'4 8.5
2018-Apr-15 21:59N 33°40' E 132°20'11 8.5
2018-Apr-15 20:44N 33°41' E 132°08'8 9.9
2018-Apr-15 19:54N 33°43' E 131°58'4 9.9
2018-Apr-15 19:30N 33°44' E 131°53'5 9.9
2018-Apr-15 19:00N 33°45' E 131°48'510.2
2018-Apr-15 18:30N 33°46' E 131°42'510.6
2018-Apr-15 18:00N 33°47' E 131°35'510.7
2018-Apr-15 17:30N 33°48' E 131°29'610.8
2018-Apr-15 17:00N 33°49' E 131°23'511.0
2018-Apr-15 16:30N 33°51' E 131°16'510.5
2018-Apr-15 16:00N 33°54' E 131°11'0 0.4
2018-Apr-15 15:30N 33°54' E 131°11'0 0.0
2018-Apr-15 15:00N 33°54' E 131°11'0 0.1
2018-Apr-15 14:30N 33°54' E 131°11'0 0.0
2018-Apr-15 14:00N 33°54' E 131°11'0 0.1
2018-Apr-15 13:30N 33°54' E 131°11'0 0.1
2018-Apr-15 13:00N 33°54' E 131°11'0 0.0
2018-Apr-15 12:30N 33°54' E 131°11'0 0.1
2018-Apr-15 12:00N 33°54' E 131°11'0 0.1
2018-Apr-15 11:30N 33°54' E 131°11'0 0.0
2018-Apr-15 11:00N 33°54' E 131°11'0 0.1
2018-Apr-15 10:30N 33°54' E 131°11'2 4.9
2018-Apr-15 10:00N 33°56' E 131°11'0 0.0
2018-Apr-15 09:30N 33°56' E 131°11'0 0.0
2018-Apr-15 09:00N 33°56' E 131°11'0 0.0
2018-Apr-15 08:30N 33°56' E 131°11'0 0.0
2018-Apr-15 08:00N 33°56' E 131°11'0 0.0
2018-Apr-15 07:30N 33°56' E 131°11'0 0.0
2018-Apr-15 07:00N 33°56' E 131°11'0 0.0
2018-Apr-15 06:30N 33°56' E 131°11'0 0.0
2018-Apr-15 06:00N 33°56' E 131°11'0 0.4
2018-Apr-15 05:30N 33°56' E 131°11'3 5.4
2018-Apr-15 05:00N 33°53' E 131°11'0 0.1
2018-Apr-15 04:30N 33°53' E 131°11'0 0.0
2018-Apr-15 04:00N 33°53' E 131°11'0 0.0
2018-Apr-15 03:30N 33°53' E 131°11'0 0.0
2018-Apr-15 03:00N 33°53' E 131°11'0 0.0
2018-Apr-15 02:30N 33°53' E 131°11'0 0.0
2018-Apr-15 02:00N 33°53' E 131°11'0 0.0
2018-Apr-15 01:30N 33°53' E 131°11'1 2.8
2018-Apr-15 01:00N 33°53' E 131°10'611.1
2018-Apr-15 00:30N 33°56' E 131°04'5 9.3
2018-Apr-15 00:00N 33°58' E 130°59'4 7.6
2018-Apr-14 23:30N 33°55' E 130°56'3 5.1
2018-Apr-14 23:00N 33°55' E 130°53'5 9.6
2018-Apr-14 22:30N 33°58' E 130°48'510.5
2018-Apr-14 22:00N 33°57' E 130°42'510.5
2018-Apr-14 21:30N 33°57' E 130°35'510.3
2018-Apr-14 21:00N 33°56' E 130°29'5 9.7
2018-Apr-14 20:30N 33°55' E 130°24'5 9.5
2018-Apr-14 20:00N 33°53' E 130°19'5 9.8
2018-Apr-14 19:30N 33°50' E 130°14'510.0
2018-Apr-14 19:00N 33°48' E 130°08'510.1
2018-Apr-14 18:30N 33°45' E 130°03'510.2
2018-Apr-14 18:00N 33°43' E 129°58'  

Dump ship's entire track history